Time;durP1;ratioP1;P1;durP2;ratioP2;P2;SDS_P1;SDS_P2;PMS_P1;PMS_P2;Temp;Humidity;BMP_temperature;BMP_pressure;BME280_temperature;BME280_humidity;BME280_pressure;Samples;Min_cycle;Max_cycle;Signal;HPM_P1;HPM_P2
2023/04/12 00:02:21;;;;;;;26.70;15.40;;;;;;;6.58;100.00;98463.94;272196;1267;22508;-90
2023/04/12 00:08:31;;;;;;;24.90;14.50;;;;;;;6.54;100.00;98462.30;270787;1270;23710;-90
2023/04/12 00:14:44;;;;;;;25.50;14.00;;;;;;;6.50;100.00;98458.48;271971;1270;23816;-88
2023/04/12 00:21:18;;;;;;;24.00;14.40;;;;;;;6.45;100.00;98453.04;272549;1269;22286;-88
2023/04/12 00:27:21;;;;;;;20.50;13.90;;;;;;;6.38;100.00;98451.35;272074;1267;22734;-90
2023/04/12 00:34:36;;;;;;;22.80;14.40;;;;;;;6.30;100.00;98447.95;271090;1267;23765;-90
2023/04/12 00:40:42;;;;;;;24.90;14.90;;;;;;;6.25;100.00;98443.73;272042;1267;23177;-90
2023/04/12 00:46:50;;;;;;;22.90;14.90;;;;;;;6.19;100.00;98444.64;272669;1267;22372;-90
2023/04/12 00:53:03;;;;;;;;;;;;;;;6.16;100.00;98448.76;271859;1267;22560;-91
2023/04/12 00:59:06;;;;;;;23.80;13.20;;;;;;;6.13;100.00;98451.58;271048;1267;22464;-91
2023/04/12 01:05:27;;;;;;;25.20;14.40;;;;;;;6.11;100.00;98449.61;272251;1267;22544;-89
2023/04/12 01:12:02;;;;;;;19.30;12.30;;;;;;;6.09;100.00;98449.23;271409;1267;23587;-91
2023/04/12 01:18:27;;;;;;;26.00;14.70;;;;;;;6.04;100.00;98452.48;272933;1267;22314;-89
2023/04/12 01:25:25;;;;;;;24.80;14.90;;;;;;;6.01;100.00;98454.13;270709;1267;23198;-90
2023/04/12 01:31:39;;;;;;;25.30;16.90;;;;;;;6.00;100.00;98451.93;272372;1267;22408;-91
2023/04/12 01:38:01;;;;;;;26.50;17.10;;;;;;;6.01;100.00;98449.63;272462;1267;22542;-89
2023/04/12 01:44:09;;;;;;;32.30;18.90;;;;;;;6.00;100.00;98449.84;271396;1267;22559;-92
2023/04/12 01:50:25;;;;;;;25.00;18.00;;;;;;;5.98;100.00;98451.29;271179;1267;25402;-89
2023/04/12 01:57:34;;;;;;;29.90;18.20;;;;;;;5.97;100.00;98450.95;272624;1254;22395;-89
2023/04/12 02:03:41;;;;;;;30.70;18.80;;;;;;;5.96;100.00;98450.30;269879;1267;22329;-90
2023/04/12 02:09:59;;;;;;;24.50;16.40;;;;;;;5.94;100.00;98450.73;272143;1267;22537;-89
2023/04/12 02:16:19;;;;;;;23.80;16.70;;;;;;;5.92;100.00;98448.05;271207;1267;22357;-91
2023/04/12 02:22:23;;;;;;;23.00;15.60;;;;;;;5.89;100.00;98452.10;272202;1264;23779;-88
2023/04/12 02:28:46;;;;;;;22.70;16.20;;;;;;;5.88;100.00;98453.85;272419;1267;23158;-91
2023/04/12 02:35:29;;;;;;;23.60;15.40;;;;;;;5.85;100.00;98445.28;273245;1267;23049;-89
2023/04/12 02:41:40;;;;;;;19.20;13.00;;;;;;;5.84;100.00;98448.81;272191;1267;22328;-88
2023/04/12 02:47:53;;;;;;;21.60;14.40;;;;;;;5.84;100.00;98449.52;272949;1267;22863;-91
2023/04/12 02:54:14;;;;;;;18.30;14.20;;;;;;;5.83;100.00;98445.30;271897;1266;22487;-90
2023/04/12 03:00:44;;;;;;;23.90;14.40;;;;;;;5.84;100.00;98450.44;272163;1266;22976;-89
2023/04/12 03:06:54;;;;;;;20.80;15.30;;;;;;;5.85;100.00;98445.66;272629;1266;23646;-89
2023/04/12 03:13:37;;;;;;;24.40;15.60;;;;;;;5.85;100.00;98449.00;271979;1267;25245;-88
2023/04/12 03:19:40;;;;;;;20.10;14.50;;;;;;;5.86;100.00;98451.63;272037;1266;23071;-90
2023/04/12 03:25:44;;;;;;;23.00;13.70;;;;;;;5.84;100.00;98446.48;272419;1266;22258;-89
2023/04/12 03:32:07;;;;;;;22.80;14.90;;;;;;;5.82;100.00;98446.34;272616;1266;22362;-90
2023/04/12 03:38:15;;;;;;;21.00;14.20;;;;;;;5.80;100.00;98448.39;272367;1267;22527;-89
2023/04/12 03:44:38;;;;;;;20.80;15.10;;;;;;;5.79;100.00;98452.02;272081;1263;23330;-89
2023/04/12 03:51:06;;;;;;;19.70;13.60;;;;;;;5.75;100.00;98452.30;273570;1267;23479;-90
2023/04/12 03:57:52;;;;;;;14.50;10.10;;;;;;;5.69;100.00;98453.20;273073;1267;22315;-89
2023/04/12 04:03:58;;;;;;;15.10;10.40;;;;;;;5.64;100.00;98449.91;273339;1267;22539;-89
2023/04/12 04:10:36;;;;;;;15.80;10.00;;;;;;;5.62;100.00;98447.08;272402;1267;22537;-90
2023/04/12 04:17:28;;;;;;;17.20;10.60;;;;;;;5.59;100.00;98448.02;272820;1271;22655;-91
2023/04/12 04:23:52;;;;;;;17.70;10.70;;;;;;;5.59;100.00;98449.48;272828;1271;22229;-89
2023/04/12 04:30:14;;;;;;;;;;;;;;;5.58;100.00;98456.14;272768;1270;22436;-90
2023/04/12 04:36:32;;;;;;;15.10;9.90;;;;;;;5.60;100.00;98461.52;272802;1260;22286;-89
2023/04/12 04:43:29;;;;;;;21.20;13.00;;;;;;;5.62;100.00;98465.67;272839;1271;22270;-90
2023/04/12 04:49:51;;;;;;;17.00;10.30;;;;;;;5.67;100.00;98461.52;273400;1256;22521;-89
2023/04/12 04:56:02;;;;;;;18.30;10.70;;;;;;;5.68;100.00;98465.13;272747;1266;22356;-89
2023/04/12 05:02:09;;;;;;;18.60;11.80;;;;;;;5.68;100.00;98470.33;273253;1267;22295;-89
2023/04/12 05:08:16;;;;;;;15.80;10.60;;;;;;;5.67;100.00;98475.58;273436;1267;22355;-87
2023/04/12 05:14:20;;;;;;;17.00;10.30;;;;;;;5.70;100.00;98479.14;273614;1267;22396;-89
2023/04/12 05:21:04;;;;;;;17.70;10.60;;;;;;;5.74;100.00;98476.52;272926;1270;22350;-90
2023/04/12 05:27:08;;;;;;;21.80;12.10;;;;;;;5.78;100.00;98472.46;273048;1270;22361;-90
2023/04/12 05:33:11;;;;;;;18.00;10.40;;;;;;;5.80;100.00;98479.67;272969;1270;22387;-89
2023/04/12 05:39:31;;;;;;;18.00;11.30;;;;;;;5.80;100.00;98484.88;265339;1270;10136492;-90
2023/04/12 05:45:54;;;;;;;19.50;12.30;;;;;;;5.84;100.00;98483.88;272302;1269;22256;-88
2023/04/12 05:52:16;;;;;;;23.30;12.60;;;;;;;5.89;100.00;98488.65;273053;1262;22326;-89
2023/04/12 05:58:18;;;;;;;21.00;12.40;;;;;;;5.92;100.00;98492.30;273166;1267;22539;-90
2023/04/12 06:04:41;;;;;;;24.30;12.50;;;;;;;5.91;100.00;98496.85;272026;1258;22318;-90
2023/04/12 06:10:47;;;;;;;21.20;14.00;;;;;;;5.97;100.00;98490.60;273473;1267;23267;-89
2023/04/12 06:16:55;;;;;;;30.10;13.00;;;;;;;6.02;100.00;98490.80;273168;1266;23699;-90
2023/04/12 06:23:19;;;;;;;18.50;11.90;;;;;;;6.04;100.00;98490.07;270908;1267;22618;-90
2023/04/12 06:30:02;;;;;;;20.50;13.40;;;;;;;6.03;100.00;98480.71;273077;1266;22316;-88
2023/04/12 06:36:56;;;;;;;22.90;14.60;;;;;;;6.06;100.00;98474.34;273201;1267;23500;-89
2023/04/12 06:43:54;;;;;;;19.50;12.30;;;;;;;6.12;100.00;98471.52;273235;1267;22306;-88
2023/04/12 06:49:57;;;;;;;17.70;11.20;;;;;;;6.22;100.00;98469.24;273708;1267;22167;-89
2023/04/12 06:56:03;;;;;;;25.60;14.20;;;;;;;6.34;100.00;98467.36;272934;1268;22404;-89
2023/04/12 07:02:32;;;;;;;23.30;13.30;;;;;;;6.45;100.00;98464.94;272114;1266;22328;-89
2023/04/12 07:08:45;;;;;;;24.30;11.90;;;;;;;6.63;100.00;98465.73;273623;1268;22279;-92
2023/04/12 07:15:33;;;;;;;19.20;12.10;;;;;;;6.79;100.00;98466.02;273433;1266;23663;-89
2023/04/12 07:22:28;;;;;;;19.40;10.90;;;;;;;7.01;100.00;98468.26;273335;1266;23519;-89
2023/04/12 07:28:32;;;;;;;18.60;10.60;;;;;;;7.12;100.00;98473.73;273391;1268;22407;-90
2023/04/12 07:34:38;;;;;;;18.10;11.70;;;;;;;7.17;100.00;98480.50;273123;1267;23215;-90
2023/04/12 07:40:41;;;;;;;18.90;12.30;;;;;;;7.15;99.98;98480.30;273071;1267;22193;-90
2023/04/12 07:46:45;;;;;;;19.40;13.60;;;;;;;7.21;99.87;98483.06;273281;1268;22171;-89
2023/04/12 07:52:48;;;;;;;18.10;12.80;;;;;;;7.28;99.71;98481.45;273091;1267;23226;-89
2023/04/12 07:58:54;;;;;;;25.30;13.70;;;;;;;7.40;99.32;98477.36;273285;1267;22438;-89
2023/04/12 08:04:58;;;;;;;17.50;12.10;;;;;;;7.55;99.45;98473.63;273259;1267;22325;-89
2023/04/12 08:11:01;;;;;;;18.40;12.20;;;;;;;7.82;99.37;98469.88;273123;1268;22558;-90
2023/04/12 08:17:03;;;;;;;20.70;13.40;;;;;;;8.18;99.21;98471.35;273281;1268;23146;-91
2023/04/12 08:23:07;;;;;;;20.20;12.00;;;;;;;8.53;98.64;98463.52;273049;1257;23382;-89
2023/04/12 08:29:11;;;;;;;23.60;13.60;;;;;;;8.96;98.21;98455.05;273668;1266;22196;-90
2023/04/12 08:35:13;;;;;;;18.50;11.50;;;;;;;9.49;97.08;98451.87;273582;1256;23715;-91
2023/04/12 08:41:22;;;;;;;17.00;11.40;;;;;;;9.89;95.94;98450.08;273109;1266;23385;-92
2023/04/12 08:47:26;;;;;;;18.50;10.60;;;;;;;10.02;95.59;98445.45;273353;1266;23057;-91
2023/04/12 08:53:46;;;;;;;15.60;9.60;;;;;;;10.23;94.75;98440.41;273429;1266;22373;-89
2023/04/12 08:59:49;;;;;;;14.90;9.70;;;;;;;10.69;93.64;98431.14;273376;1264;22353;-91
2023/04/12 09:05:55;;;;;;;14.80;9.20;;;;;;;11.22;92.23;98428.11;273264;1267;22330;-86
2023/04/12 09:12:21;;;;;;;12.60;7.70;;;;;;;11.83;91.32;98423.00;273193;1266;22296;-89
2023/04/12 09:18:23;;;;;;;10.60;8.10;;;;;;;12.95;90.49;98409.08;273226;1266;22549;-89
2023/04/12 09:24:28;;;;;;;10.30;7.20;;;;;;;13.38;87.99;98410.66;273287;1266;22382;-89
2023/04/12 09:30:41;;;;;;;8.10;6.40;;;;;;;13.45;86.21;98407.04;273060;1267;22338;-93
2023/04/12 09:36:53;;;;;;;11.70;7.90;;;;;;;13.94;83.56;98405.88;272971;1267;22312;-90
2023/04/12 09:43:02;;;;;;;6.00;5.30;;;;;;;14.45;83.50;98398.69;273138;1266;23547;-89
2023/04/12 09:49:05;;;;;;;7.00;5.00;;;;;;;15.05;79.93;98396.26;272956;1265;23437;-89
2023/04/12 09:55:09;;;;;;;8.40;5.40;;;;;;;14.96;80.24;98389.45;273030;1267;23027;-92
2023/04/12 10:01:15;;;;;;;9.20;4.80;;;;;;;16.07;76.75;98382.56;273173;1266;23468;-91
2023/04/12 10:07:17;;;;;;;7.40;5.10;;;;;;;16.05;73.18;98374.96;272922;1267;22319;-89
2023/04/12 10:13:20;;;;;;;6.50;3.80;;;;;;;15.57;72.66;98364.02;273251;1266;23341;-89
2023/04/12 10:19:24;;;;;;;7.10;4.40;;;;;;;14.80;71.43;98353.04;273437;1267;22394;-89
2023/04/12 10:25:29;;;;;;;7.60;4.80;;;;;;;15.25;72.39;98344.45;273243;1267;22340;-89
2023/04/12 10:31:35;;;;;;;7.30;4.80;;;;;;;16.60;70.83;98337.67;273601;1267;22194;-91
2023/04/12 10:37:57;;;;;;;6.50;3.50;;;;;;;17.20;68.76;98335.75;273548;1266;22504;-89
2023/04/12 10:44:24;;;;;;;4.70;3.80;;;;;;;16.32;66.19;98340.84;273623;1267;22197;-89
2023/04/12 10:50:32;;;;;;;4.80;3.50;;;;;;;15.13;65.87;98334.84;273621;1267;23234;-88
2023/04/12 10:56:43;;;;;;;7.60;4.30;;;;;;;14.26;65.72;98326.38;273453;1266;22329;-87
2023/04/12 11:03:16;;;;;;;11.10;5.10;;;;;;;13.48;66.06;98325.07;273326;1267;25859;-89
2023/04/12 11:09:25;;;;;;;10.00;4.70;;;;;;;12.87;66.44;98326.61;273620;1267;22233;-91
2023/04/12 11:15:55;;;;;;;12.80;6.90;;;;;;;12.49;66.35;98326.43;273290;1266;22416;-88
2023/04/12 11:22:23;;;;;;;9.20;5.50;;;;;;;12.22;65.96;98323.39;273174;1266;23410;-89
2023/04/12 11:28:29;;;;;;;15.00;6.20;;;;;;;11.97;65.70;98316.80;273482;1267;22261;-87
2023/04/12 11:34:35;;;;;;;11.80;5.30;;;;;;;11.86;65.78;98310.27;273237;1268;22516;-91
2023/04/12 11:40:46;;;;;;;8.30;4.40;;;;;;;11.86;66.27;98307.06;273295;1267;22244;-89
2023/04/12 11:46:51;;;;;;;7.70;4.50;;;;;;;11.97;66.23;98302.08;273109;1267;22307;-90
2023/04/12 11:52:54;;;;;;;8.20;3.90;;;;;;;11.95;65.71;98295.65;272829;1268;22182;-91
2023/04/12 11:58:59;;;;;;;7.20;4.60;;;;;;;12.09;65.94;98289.21;273553;1267;22190;-89
2023/04/12 12:05:02;;;;;;;5.50;4.00;;;;;;;12.24;66.16;98285.60;273251;1267;22341;-90
2023/04/12 12:11:11;;;;;;;8.30;4.30;;;;;;;12.24;65.45;98283.88;273285;1267;22394;-90
2023/04/12 12:17:26;;;;;;;10.70;5.80;;;;;;;12.20;65.42;98277.47;273162;1268;22319;-90
2023/04/12 12:23:32;;;;;;;11.20;4.60;;;;;;;12.23;65.24;98269.85;272804;1266;22407;-89
2023/04/12 12:29:37;;;;;;;11.20;3.90;;;;;;;12.16;64.84;98266.14;272686;1269;22408;-88
2023/04/12 12:35:47;;;;;;;7.30;4.20;;;;;;;12.19;64.91;98260.70;273373;1268;22210;-89
2023/04/12 12:41:54;;;;;;;6.40;4.10;;;;;;;12.42;64.89;98250.64;273300;1267;22327;-89
2023/04/12 12:47:59;;;;;;;8.60;3.40;;;;;;;12.69;64.69;98242.65;273287;1268;22390;-89
2023/04/12 12:54:02;;;;;;;6.00;3.60;;;;;;;12.94;64.40;98237.54;273394;1267;22302;-89
2023/04/12 13:00:05;;;;;;;7.90;3.70;;;;;;;12.82;63.71;98229.27;273419;1267;22341;-89
2023/04/12 13:06:08;;;;;;;6.00;3.80;;;;;;;12.71;63.56;98223.17;273462;1267;22310;-89
2023/04/12 13:12:10;;;;;;;6.30;3.90;;;;;;;12.55;63.55;98220.81;272819;1267;22633;-89
2023/04/12 13:18:19;;;;;;;5.60;3.70;;;;;;;12.62;63.51;98215.25;273475;1268;22141;-90
2023/04/12 13:24:31;;;;;;;7.10;4.40;;;;;;;12.71;63.20;98211.56;273048;1267;22834;-90
2023/04/12 13:31:06;;;;;;;8.30;5.30;;;;;;;12.47;61.91;98207.70;273232;1267;22328;-89
2023/04/12 13:37:10;;;;;;;5.70;4.50;;;;;;;12.12;62.26;98201.10;273351;1267;22477;-92
2023/04/12 13:43:15;;;;;;;6.80;4.40;;;;;;;11.89;61.89;98195.47;273219;1268;22228;-90
2023/04/12 13:49:17;;;;;;;7.90;5.10;;;;;;;11.77;62.08;98193.42;273229;1267;22798;-90
2023/04/12 13:55:19;;;;;;;7.00;4.80;;;;;;;11.85;61.90;98188.75;273382;1266;23078;-89
2023/04/12 14:01:25;;;;;;;7.00;4.20;;;;;;;11.97;62.72;98189.84;273198;1267;23412;-89
2023/04/12 14:07:32;;;;;;;5.30;3.70;;;;;;;12.23;62.06;98182.52;273278;1261;22185;-89
2023/04/12 14:13:34;;;;;;;8.10;4.10;;;;;;;12.38;62.24;98181.52;273109;1267;22312;-89
2023/04/12 14:19:46;;;;;;;7.50;4.70;;;;;;;12.59;62.15;98179.83;273182;1267;22256;-89
2023/04/12 14:25:52;;;;;;;8.20;3.30;;;;;;;12.75;61.69;98178.02;273366;1267;22638;-90
2023/04/12 14:32:03;;;;;;;4.80;3.20;;;;;;;13.11;61.73;98174.11;273537;1267;22397;-90
2023/04/12 14:38:05;;;;;;;4.60;3.00;;;;;;;13.35;60.79;98168.77;273313;1267;22326;-89
2023/04/12 14:44:08;;;;;;;4.00;2.80;;;;;;;13.53;60.30;98170.18;273351;1267;22410;-90
2023/04/12 14:50:13;;;;;;;4.00;2.60;;;;;;;13.65;59.78;98166.55;273696;1267;22399;-90
2023/04/12 14:56:25;;;;;;;4.90;3.00;;;;;;;13.81;58.93;98164.03;273457;1269;22168;-88
2023/04/12 15:02:28;;;;;;;4.10;3.00;;;;;;;13.95;58.22;98158.48;273181;1266;22335;-90
2023/04/12 15:08:30;;;;;;;4.50;3.00;;;;;;;13.72;57.68;98155.70;272983;1266;22488;-89
2023/04/12 15:14:36;;;;;;;10.20;6.00;;;;;;;13.58;57.97;98147.26;273345;1268;22328;-89
2023/04/12 15:21:07;;;;;;;4.30;3.20;;;;;;;13.58;57.85;98145.59;273344;1267;22291;-89
2023/04/12 15:27:09;;;;;;;4.90;2.90;;;;;;;13.48;57.65;98140.86;273467;1267;22350;-88
2023/04/12 15:33:12;;;;;;;5.20;3.00;;;;;;;13.22;57.31;98137.23;273377;1267;22261;-92
2023/04/12 15:39:16;;;;;;;4.90;3.40;;;;;;;12.77;56.88;98132.09;273620;1267;23176;-88
2023/04/12 15:46:00;;;;;;;5.60;3.40;;;;;;;12.44;57.09;98127.10;273412;1267;22403;-89
2023/04/12 15:52:28;;;;;;;4.50;2.90;;;;;;;12.16;57.14;98124.48;273633;1267;23387;-88
2023/04/12 15:59:07;;;;;;;6.20;3.40;;;;;;;11.91;57.08;98116.16;273393;1266;22345;-88
2023/04/12 16:05:15;;;;;;;5.50;3.80;;;;;;;11.68;57.51;98111.00;273423;1267;22388;-88
2023/04/12 16:11:52;;;;;;;7.40;4.40;;;;;;;11.48;58.40;98110.27;273359;1267;22314;-88
2023/04/12 16:18:08;;;;;;;5.60;4.00;;;;;;;11.33;58.60;98108.64;273278;1267;22446;-89
2023/04/12 16:24:14;;;;;;;5.50;3.60;;;;;;;11.13;58.96;98111.88;273455;1267;23896;-90
2023/04/12 16:30:39;;;;;;;7.80;4.30;;;;;;;11.02;59.19;98111.29;272981;1267;23702;-89
2023/04/12 16:37:06;;;;;;;8.90;4.90;;;;;;;10.89;59.38;98101.42;273061;1267;22333;-89
2023/04/12 16:43:32;;;;;;;5.90;3.50;;;;;;;10.73;59.39;98095.55;273177;1267;22557;-87
2023/04/12 16:49:57;;;;;;;12.50;6.30;;;;;;;10.55;59.58;98095.45;265750;1267;10001479;-89
2023/04/12 16:56:28;;;;;;;10.70;7.50;;;;;;;10.39;60.36;98098.09;273344;1267;22395;-88
2023/04/12 17:02:33;;;;;;;10.70;7.10;;;;;;;10.22;60.85;98097.04;273280;1267;23633;-88
2023/04/12 17:08:39;;;;;;;11.30;7.10;;;;;;;10.05;61.41;98096.80;273329;1267;23953;-88
2023/04/12 17:14:42;;;;;;;12.60;6.80;;;;;;;9.85;62.23;98099.84;273375;1267;22548;-88
2023/04/12 17:20:44;;;;;;;11.90;6.70;;;;;;;9.64;62.60;98097.49;272947;1267;23227;-88
2023/04/12 17:26:50;;;;;;;12.00;6.60;;;;;;;9.45;63.02;98086.09;273312;1266;22445;-88
2023/04/12 17:33:06;;;;;;;13.90;7.00;;;;;;;9.29;63.25;98083.81;273280;1267;22331;-89
2023/04/12 17:39:44;;;;;;;12.60;6.60;;;;;;;9.13;63.59;98082.77;272682;1267;838822;-88
2023/04/12 17:46:45;;;;;;;;;;;;;;;;;;;;;
2023/04/12 18:00:47;;;;;;;18.90;10.50;;;;;;;8.21;65.76;98087.52;272838;1266;23613;-89
2023/04/12 18:06:53;;;;;;;22.70;11.80;;;;;;;7.92;66.59;98093.16;273635;1261;22875;-87
2023/04/12 18:13:22;;;;;;;24.90;14.90;;;;;;;7.73;67.30;98102.11;273519;1267;22475;-89
2023/04/12 18:26:37;;;;;;;471.30;219.00;;;;;;;7.15;68.66;98102.75;273425;1266;22348;-87
2023/04/12 18:33:13;;;;;;;134.60;59.60;;;;;;;6.81;69.35;98106.56;273393;1267;22211;-88
2023/04/12 18:39:25;;;;;;;86.50;39.30;;;;;;;6.53;70.37;98102.66;273251;1267;22610;-88
2023/04/12 18:45:31;;;;;;;34.30;20.60;;;;;;;6.27;71.16;98103.55;273229;1253;22409;-87
2023/04/12 18:51:44;;;;;;;34.40;17.70;;;;;;;6.06;72.01;98105.43;273123;1253;23203;-89
2023/04/12 18:57:48;;;;;;;38.00;18.80;;;;;;;5.94;72.89;98099.27;273386;1253;22328;-87
2023/04/12 19:03:52;;;;;;;27.90;18.20;;;;;;;5.76;73.53;98090.99;272914;1267;22522;-88
2023/04/12 19:09:56;;;;;;;35.30;21.20;;;;;;;5.60;74.21;98083.67;273319;1266;22705;-87
2023/04/12 19:15:58;;;;;;;33.70;20.70;;;;;;;5.50;75.10;98081.95;273330;1267;22317;-88
2023/04/12 19:22:10;;;;;;;30.80;18.40;;;;;;;5.37;75.72;98086.16;273071;1267;22334;-89
2023/04/12 19:28:29;;;;;;;36.40;19.90;;;;;;;5.24;76.45;98089.19;272710;1268;22684;-88
2023/04/12 19:34:32;;;;;;;37.80;23.30;;;;;;;5.10;77.05;98088.94;272859;1268;22344;-88
2023/04/12 19:40:34;;;;;;;39.80;23.40;;;;;;;4.98;77.72;98084.44;272580;1267;23788;-89
2023/04/12 19:46:37;;;;;;;38.20;22.20;;;;;;;4.89;78.48;98083.13;272901;1268;22337;-88
2023/04/12 19:52:41;;;;;;;49.40;29.20;;;;;;;4.79;79.00;98078.23;273022;1268;22425;-89
2023/04/12 19:58:45;;;;;;;39.60;24.10;;;;;;;4.58;79.01;98069.98;272876;1268;22268;-88
2023/04/12 20:04:47;;;;;;;60.70;31.40;;;;;;;4.35;79.56;98067.04;273047;1268;22458;-88
2023/04/12 20:10:50;;;;;;;50.90;29.40;;;;;;;4.23;80.63;98069.10;273106;1268;22335;-88
2023/04/12 20:16:55;;;;;;;51.80;29.30;;;;;;;4.23;81.51;98070.81;273032;1267;22324;-87
2023/04/12 20:23:01;;;;;;;53.80;30.10;;;;;;;4.25;81.93;98070.46;273065;1260;22693;-87
2023/04/12 20:29:04;;;;;;;50.00;27.50;;;;;;;4.19;82.05;98063.37;273359;1266;22332;-87
2023/04/12 20:35:07;;;;;;;36.50;21.80;;;;;;;4.20;82.57;98062.63;273459;1267;22216;-87
2023/04/12 20:41:09;;;;;;;32.80;21.30;;;;;;;4.21;83.05;98060.95;273383;1265;22371;-88
2023/04/12 20:47:11;;;;;;;38.80;22.80;;;;;;;4.15;83.33;98058.96;273458;1267;22449;-88
2023/04/12 20:53:14;;;;;;;40.60;23.50;;;;;;;4.07;83.51;98055.38;273380;1251;22711;-88
2023/04/12 20:59:20;;;;;;;45.90;27.50;;;;;;;3.92;83.68;98053.05;273476;1257;22268;-88
2023/04/12 21:05:32;;;;;;;49.50;29.40;;;;;;;3.74;83.84;98051.02;273122;1267;22316;-88
2023/04/12 21:11:42;;;;;;;53.10;30.30;;;;;;;3.59;84.43;98051.90;273225;1266;22347;-88
2023/04/12 21:17:49;;;;;;;56.60;30.60;;;;;;;3.53;84.98;98055.23;273405;1267;22400;-88
2023/04/12 21:23:51;;;;;;;;;;;;;;;3.44;85.18;98051.70;273391;1267;22477;-87
2023/04/12 21:29:54;;;;;;;36.70;21.40;;;;;;;3.33;85.59;98048.71;273446;1266;22181;-87
2023/04/12 21:35:56;;;;;;;54.50;30.40;;;;;;;3.16;84.89;98047.30;273023;1266;22544;-86
2023/04/12 21:42:06;;;;;;;57.00;31.50;;;;;;;3.04;85.94;98042.05;273509;1255;22308;-86
2023/04/12 21:48:08;;;;;;;52.90;29.10;;;;;;;2.99;86.40;98041.78;273187;1266;22590;-88
2023/04/12 21:54:11;;;;;;;54.60;30.60;;;;;;;2.89;86.43;98044.45;272875;1266;22365;-87
2023/04/12 22:00:19;;;;;;;56.70;31.50;;;;;;;2.72;86.48;98037.30;273321;1266;22372;-87
2023/04/12 22:06:21;;;;;;;49.80;27.30;;;;;;;2.57;86.92;98032.27;273650;1263;23514;-86
2023/04/12 22:12:32;;;;;;;56.60;32.30;;;;;;;2.54;87.77;98030.02;273668;1266;22392;-87
2023/04/12 22:18:34;;;;;;;52.00;31.40;;;;;;;2.52;88.09;98024.95;273586;1266;22381;-88
2023/04/12 22:24:37;;;;;;;53.90;31.20;;;;;;;2.47;88.24;98017.27;273437;1267;24087;-87
2023/04/12 22:30:40;;;;;;;61.70;33.20;;;;;;;2.40;88.41;98015.61;273437;1268;22192;-87
2023/04/12 22:36:43;;;;;;;49.40;30.60;;;;;;;2.32;88.57;98016.22;273069;1266;22374;-88
2023/04/12 22:42:47;;;;;;;57.90;31.60;;;;;;;2.25;88.71;98016.64;273383;1267;22220;-87
2023/04/12 22:48:48;;;;;;;63.60;33.00;;;;;;;2.14;88.46;98013.63;273279;1265;22332;-88
2023/04/12 22:54:52;;;;;;;56.70;30.90;;;;;;;2.02;88.81;98015.08;273312;1267;22954;-87
2023/04/12 23:00:57;;;;;;;53.40;30.40;;;;;;;1.92;89.22;98015.21;273253;1267;22730;-87
2023/04/12 23:07:08;;;;;;;53.70;29.50;;;;;;;1.90;89.60;98008.61;273105;1268;22432;-88
2023/04/12 23:13:10;;;;;;;58.00;32.10;;;;;;;1.86;89.74;98001.56;273301;1268;22342;-88
2023/04/12 23:19:13;;;;;;;67.40;34.90;;;;;;;1.74;89.52;97991.82;273125;1266;22474;-87
2023/04/12 23:25:40;;;;;;;59.10;34.40;;;;;;;1.61;89.73;97976.33;273199;1266;23257;-86
2023/04/12 23:32:03;;;;;;;68.40;35.70;;;;;;;1.44;89.85;97961.94;273157;1266;22506;-88
2023/04/12 23:38:08;;;;;;;56.80;32.50;;;;;;;1.31;90.25;97945.77;273538;1267;22359;-87
2023/04/12 23:44:10;;;;;;;57.50;31.60;;;;;;;1.25;90.50;97940.64;273217;1267;22173;-88
2023/04/12 23:50:12;;;;;;;58.10;29.20;;;;;;;1.23;90.96;97935.48;273052;1266;22781;-88
2023/04/12 23:56:48;;;;;;;57.20;30.90;;;;;;;1.22;91.01;97934.92;273520;1260;22405;-86
